sensor_id;sensor_type;location;lat;lon;timestamp;P1;durP1;ratioP1;P2;durP2;ratioP2
20144;SDS011;10233;50.814;6.590;2024-01-06T00:00:12;0.77;;;0.70;;
20144;SDS011;10233;50.814;6.590;2024-01-06T00:01:15;1.60;;;0.90;;
20144;SDS011;10233;50.814;6.590;2024-01-06T00:02:16;4.82;;;1.02;;
20144;SDS011;10233;50.814;6.590;2024-01-06T00:03:17;1.77;;;0.97;;
20144;SDS011;10233;50.814;6.590;2024-01-06T00:04:17;1.02;;;0.93;;
20144;SDS011;10233;50.814;6.590;2024-01-06T00:05:18;1.10;;;1.00;;
20144;SDS011;10233;50.814;6.590;2024-01-06T00:06:18;4.43;;;1.57;;
20144;SDS011;10233;50.814;6.590;2024-01-06T00:07:19;1.20;;;1.10;;
20144;SDS011;10233;50.814;6.590;2024-01-06T00:08:19;7.65;;;3.50;;
20144;SDS011;10233;50.814;6.590;2024-01-06T00:09:20;5.60;;;2.77;;
20144;SDS011;10233;50.814;6.590;2024-01-06T00:10:20;13.30;;;5.40;;
20144;SDS011;10233;50.814;6.590;2024-01-06T00:11:22;13.03;;;5.43;;
20144;SDS011;10233;50.814;6.590;2024-01-06T00:12:23;8.27;;;3.72;;
20144;SDS011;10233;50.814;6.590;2024-01-06T00:13:23;3.80;;;1.40;;
20144;SDS011;10233;50.814;6.590;2024-01-06T00:14:23;11.33;;;4.13;;
20144;SDS011;10233;50.814;6.590;2024-01-06T00:15:24;23.90;;;6.30;;
20144;SDS011;10233;50.814;6.590;2024-01-06T00:16:24;13.60;;;5.97;;
20144;SDS011;10233;50.814;6.590;2024-01-06T00:17:25;6.17;;;3.27;;
20144;SDS011;10233;50.814;6.590;2024-01-06T00:18:25;9.27;;;3.90;;
20144;SDS011;10233;50.814;6.590;2024-01-06T00:19:26;8.57;;;3.57;;
20144;SDS011;10233;50.814;6.590;2024-01-06T00:20:27;13.32;;;6.05;;
20144;SDS011;10233;50.814;6.590;2024-01-06T00:21:35;11.20;;;4.25;;
20144;SDS011;10233;50.814;6.590;2024-01-06T00:22:35;13.30;;;5.43;;
20144;SDS011;10233;50.814;6.590;2024-01-06T00:23:36;6.50;;;2.13;;
20144;SDS011;10233;50.814;6.590;2024-01-06T00:24:36;4.53;;;1.27;;
20144;SDS011;10233;50.814;6.590;2024-01-06T00:25:37;4.50;;;2.00;;
20144;SDS011;10233;50.814;6.590;2024-01-06T00:26:37;4.63;;;2.38;;
20144;SDS011;10233;50.814;6.590;2024-01-06T00:27:37;3.03;;;1.80;;
20144;SDS011;10233;50.814;6.590;2024-01-06T00:28:41;3.08;;;2.00;;
20144;SDS011;10233;50.814;6.590;2024-01-06T00:29:41;3.15;;;2.10;;
20144;SDS011;10233;50.814;6.590;2024-01-06T00:30:42;2.30;;;1.30;;
20144;SDS011;10233;50.814;6.590;2024-01-06T00:31:42;2.00;;;1.10;;
20144;SDS011;10233;50.814;6.590;2024-01-06T00:32:42;1.00;;;0.73;;
20144;SDS011;10233;50.814;6.590;2024-01-06T00:33:43;1.00;;;0.80;;
20144;SDS011;10233;50.814;6.590;2024-01-06T00:34:44;1.27;;;0.93;;
20144;SDS011;10233;50.814;6.590;2024-01-06T00:35:44;0.60;;;0.50;;
20144;SDS011;10233;50.814;6.590;2024-01-06T00:36:44;1.73;;;0.57;;
20144;SDS011;10233;50.814;6.590;2024-01-06T00:37:45;0.70;;;0.50;;
20144;SDS011;10233;50.814;6.590;2024-01-06T00:38:45;0.63;;;0.60;;
20144;SDS011;10233;50.814;6.590;2024-01-06T00:39:46;1.20;;;0.88;;
20144;SDS011;10233;50.814;6.590;2024-01-06T00:40:46;1.13;;;0.63;;
20144;SDS011;10233;50.814;6.590;2024-01-06T00:41:47;0.70;;;0.50;;
20144;SDS011;10233;50.814;6.590;2024-01-06T00:42:47;0.70;;;0.57;;
20144;SDS011;10233;50.814;6.590;2024-01-06T00:43:47;0.40;;;0.40;;
20144;SDS011;10233;50.814;6.590;2024-01-06T00:44:48;1.20;;;0.73;;
20144;SDS011;10233;50.814;6.590;2024-01-06T00:45:48;1.50;;;0.90;;
20144;SDS011;10233;50.814;6.590;2024-01-06T00:46:49;0.57;;;0.57;;
20144;SDS011;10233;50.814;6.590;2024-01-06T00:47:49;0.93;;;0.83;;
20144;SDS011;10233;50.814;6.590;2024-01-06T00:48:50;0.90;;;0.80;;
20144;SDS011;10233;50.814;6.590;2024-01-06T00:49:50;0.67;;;0.53;;
20144;SDS011;10233;50.814;6.590;2024-01-06T00:50:51;1.10;;;0.45;;
20144;SDS011;10233;50.814;6.590;2024-01-06T00:51:51;1.53;;;0.80;;
20144;SDS011;10233;50.814;6.590;2024-01-06T00:52:52;1.58;;;0.98;;
20144;SDS011;10233;50.814;6.590;2024-01-06T00:53:53;0.73;;;0.60;;
20144;SDS011;10233;50.814;6.590;2024-01-06T00:54:53;0.73;;;0.73;;
20144;SDS011;10233;50.814;6.590;2024-01-06T00:55:54;0.82;;;0.73;;
20144;SDS011;10233;50.814;6.590;2024-01-06T00:56:54;3.30;;;0.90;;
20144;SDS011;10233;50.814;6.590;2024-01-06T00:57:54;0.60;;;0.47;;
20144;SDS011;10233;50.814;6.590;2024-01-06T00:58:55;1.00;;;0.80;;
20144;SDS011;10233;50.814;6.590;2024-01-06T00:59:55;0.50;;;0.40;;
20144;SDS011;10233;50.814;6.590;2024-01-06T01:00:56;0.75;;;0.60;;
20144;SDS011;10233;50.814;6.590;2024-01-06T01:01:56;0.70;;;0.40;;
20144;SDS011;10233;50.814;6.590;2024-01-06T01:02:56;1.37;;;0.50;;
20144;SDS011;10233;50.814;6.590;2024-01-06T01:03:57;0.70;;;0.50;;
20144;SDS011;10233;50.814;6.590;2024-01-06T01:04:57;0.63;;;0.50;;
20144;SDS011;10233;50.814;6.590;2024-01-06T01:05:58;1.02;;;0.55;;
20144;SDS011;10233;50.814;6.590;2024-01-06T01:06:58;2.97;;;1.07;;
20144;SDS011;10233;50.814;6.590;2024-01-06T01:07:58;1.30;;;0.80;;
20144;SDS011;10233;50.814;6.590;2024-01-06T01:08:59;0.63;;;0.53;;
20144;SDS011;10233;50.814;6.590;2024-01-06T01:09:59;2.30;;;1.10;;
20144;SDS011;10233;50.814;6.590;2024-01-06T01:11:00;1.73;;;0.70;;
20144;SDS011;10233;50.814;6.590;2024-01-06T01:12:00;1.53;;;1.00;;
20144;SDS011;10233;50.814;6.590;2024-01-06T01:13:01;2.42;;;1.02;;
20144;SDS011;10233;50.814;6.590;2024-01-06T01:14:01;1.33;;;0.93;;
20144;SDS011;10233;50.814;6.590;2024-01-06T01:15:02;1.98;;;1.08;;
20144;SDS011;10233;50.814;6.590;2024-01-06T01:16:03;1.20;;;0.82;;
20144;SDS011;10233;50.814;6.590;2024-01-06T01:17:04;2.33;;;1.08;;
20144;SDS011;10233;50.814;6.590;2024-01-06T01:18:08;2.70;;;1.30;;
20144;SDS011;10233;50.814;6.590;2024-01-06T01:19:16;2.35;;;1.35;;
20144;SDS011;10233;50.814;6.590;2024-01-06T01:20:16;2.47;;;1.33;;
20144;SDS011;10233;50.814;6.590;2024-01-06T01:21:16;1.83;;;1.17;;
20144;SDS011;10233;50.814;6.590;2024-01-06T01:22:17;2.43;;;1.50;;
20144;SDS011;10233;50.814;6.590;2024-01-06T01:23:17;1.27;;;1.00;;
20144;SDS011;10233;50.814;6.590;2024-01-06T01:24:18;2.80;;;1.43;;
20144;SDS011;10233;50.814;6.590;2024-01-06T01:25:18;4.17;;;1.30;;
20144;SDS011;10233;50.814;6.590;2024-01-06T01:26:19;1.95;;;1.48;;
20144;SDS011;10233;50.814;6.590;2024-01-06T01:27:19;1.33;;;1.07;;
20144;SDS011;10233;50.814;6.590;2024-01-06T01:28:19;3.80;;;1.75;;
20144;SDS011;10233;50.814;6.590;2024-01-06T01:29:20;2.00;;;1.20;;
20144;SDS011;10233;50.814;6.590;2024-01-06T01:30:20;1.88;;;1.30;;
20144;SDS011;10233;50.814;6.590;2024-01-06T01:31:21;3.60;;;1.53;;
20144;SDS011;10233;50.814;6.590;2024-01-06T01:32:21;1.97;;;1.20;;
20144;SDS011;10233;50.814;6.590;2024-01-06T01:33:22;3.90;;;1.63;;
20144;SDS011;10233;50.814;6.590;2024-01-06T01:34:22;3.17;;;1.43;;
20144;SDS011;10233;50.814;6.590;2024-01-06T01:35:23;3.80;;;1.60;;
20144;SDS011;10233;50.814;6.590;2024-01-06T01:36:23;2.10;;;1.30;;
20144;SDS011;10233;50.814;6.590;2024-01-06T01:37:23;2.55;;;1.60;;
20144;SDS011;10233;50.814;6.590;2024-01-06T01:38:24;2.70;;;1.60;;
20144;SDS011;10233;50.814;6.590;2024-01-06T01:39:24;3.60;;;1.60;;
20144;SDS011;10233;50.814;6.590;2024-01-06T01:40:25;3.10;;;1.75;;
20144;SDS011;10233;50.814;6.590;2024-01-06T01:41:25;2.50;;;1.23;;
20144;SDS011;10233;50.814;6.590;2024-01-06T01:42:26;2.43;;;1.93;;
20144;SDS011;10233;50.814;6.590;2024-01-06T01:43:26;2.77;;;1.90;;
20144;SDS011;10233;50.814;6.590;2024-01-06T01:44:28;2.72;;;1.73;;
20144;SDS011;10233;50.814;6.590;2024-01-06T01:45:29;2.27;;;1.57;;
20144;SDS011;10233;50.814;6.590;2024-01-06T01:46:30;2.33;;;1.17;;
20144;SDS011;10233;50.814;6.590;2024-01-06T01:47:30;3.08;;;2.08;;
20144;SDS011;10233;50.814;6.590;2024-01-06T01:48:31;2.87;;;1.43;;
20144;SDS011;10233;50.814;6.590;2024-01-06T01:49:34;3.30;;;1.85;;
20144;SDS011;10233;50.814;6.590;2024-01-06T01:50:36;2.15;;;1.58;;
20144;SDS011;10233;50.814;6.590;2024-01-06T01:51:36;3.70;;;1.97;;
20144;SDS011;10233;50.814;6.590;2024-01-06T01:52:39;3.03;;;1.58;;
20144;SDS011;10233;50.814;6.590;2024-01-06T01:53:40;3.13;;;1.92;;
20144;SDS011;10233;50.814;6.590;2024-01-06T01:54:42;2.15;;;1.67;;
20144;SDS011;10233;50.814;6.590;2024-01-06T01:55:44;4.78;;;2.17;;
20144;SDS011;10233;50.814;6.590;2024-01-06T01:56:46;4.40;;;2.00;;
20144;SDS011;10233;50.814;6.590;2024-01-06T01:57:46;5.43;;;2.42;;
20144;SDS011;10233;50.814;6.590;2024-01-06T01:58:47;3.63;;;2.10;;
20144;SDS011;10233;50.814;6.590;2024-01-06T01:59:48;3.88;;;2.20;;
20144;SDS011;10233;50.814;6.590;2024-01-06T02:00:49;7.57;;;2.15;;
20144;SDS011;10233;50.814;6.590;2024-01-06T02:01:49;7.50;;;2.22;;
20144;SDS011;10233;50.814;6.590;2024-01-06T02:02:50;3.83;;;2.23;;
20144;SDS011;10233;50.814;6.590;2024-01-06T02:03:52;6.65;;;3.05;;
20144;SDS011;10233;50.814;6.590;2024-01-06T02:04:53;7.73;;;1.87;;
20144;SDS011;10233;50.814;6.590;2024-01-06T02:05:53;3.58;;;2.20;;
20144;SDS011;10233;50.814;6.590;2024-01-06T02:06:54;3.57;;;2.23;;
20144;SDS011;10233;50.814;6.590;2024-01-06T02:07:54;3.53;;;2.15;;
20144;SDS011;10233;50.814;6.590;2024-01-06T02:08:55;5.00;;;2.70;;
20144;SDS011;10233;50.814;6.590;2024-01-06T02:09:55;2.85;;;1.92;;
20144;SDS011;10233;50.814;6.590;2024-01-06T02:10:56;3.27;;;1.90;;
20144;SDS011;10233;50.814;6.590;2024-01-06T02:11:56;4.68;;;2.25;;
20144;SDS011;10233;50.814;6.590;2024-01-06T02:13:06;4.28;;;2.20;;
20144;SDS011;10233;50.814;6.590;2024-01-06T02:14:07;2.60;;;1.80;;
20144;SDS011;10233;50.814;6.590;2024-01-06T02:15:08;4.37;;;2.57;;
20144;SDS011;10233;50.814;6.590;2024-01-06T02:16:08;3.50;;;2.03;;
20144;SDS011;10233;50.814;6.590;2024-01-06T02:17:09;4.78;;;2.53;;
20144;SDS011;10233;50.814;6.590;2024-01-06T02:18:09;3.93;;;2.07;;
20144;SDS011;10233;50.814;6.590;2024-01-06T02:19:10;3.33;;;2.03;;
20144;SDS011;10233;50.814;6.590;2024-01-06T02:20:13;5.82;;;2.13;;
20144;SDS011;10233;50.814;6.590;2024-01-06T02:21:16;4.95;;;2.10;;
20144;SDS011;10233;50.814;6.590;2024-01-06T02:22:17;4.70;;;2.38;;
20144;SDS011;10233;50.814;6.590;2024-01-06T02:23:18;3.57;;;2.03;;
20144;SDS011;10233;50.814;6.590;2024-01-06T02:24:18;5.38;;;2.95;;
20144;SDS011;10233;50.814;6.590;2024-01-06T02:25:19;3.10;;;2.17;;
20144;SDS011;10233;50.814;6.590;2024-01-06T02:26:20;5.63;;;2.57;;
20144;SDS011;10233;50.814;6.590;2024-01-06T02:27:20;4.47;;;2.33;;
20144;SDS011;10233;50.814;6.590;2024-01-06T02:28:21;3.57;;;2.33;;
20144;SDS011;10233;50.814;6.590;2024-01-06T02:29:24;2.67;;;2.23;;
20144;SDS011;10233;50.814;6.590;2024-01-06T02:30:24;4.53;;;1.83;;
20144;SDS011;10233;50.814;6.590;2024-01-06T02:31:25;4.60;;;2.27;;
20144;SDS011;10233;50.814;6.590;2024-01-06T02:32:25;3.78;;;2.28;;
20144;SDS011;10233;50.814;6.590;2024-01-06T02:33:26;4.33;;;2.77;;
20144;SDS011;10233;50.814;6.590;2024-01-06T02:34:26;3.87;;;2.17;;
20144;SDS011;10233;50.814;6.590;2024-01-06T02:35:26;4.37;;;2.63;;
20144;SDS011;10233;50.814;6.590;2024-01-06T02:36:27;4.13;;;2.40;;
20144;SDS011;10233;50.814;6.590;2024-01-06T02:37:27;2.95;;;1.55;;
20144;SDS011;10233;50.814;6.590;2024-01-06T02:38:28;3.83;;;2.17;;
20144;SDS011;10233;50.814;6.590;2024-01-06T02:39:28;4.63;;;2.83;;
20144;SDS011;10233;50.814;6.590;2024-01-06T02:40:28;4.20;;;2.10;;
20144;SDS011;10233;50.814;6.590;2024-01-06T02:41:30;4.32;;;1.90;;
20144;SDS011;10233;50.814;6.590;2024-01-06T02:42:30;3.58;;;2.17;;
20144;SDS011;10233;50.814;6.590;2024-01-06T02:43:31;4.43;;;2.17;;
20144;SDS011;10233;50.814;6.590;2024-01-06T02:44:31;3.50;;;1.83;;
20144;SDS011;10233;50.814;6.590;2024-01-06T02:45:31;3.27;;;2.17;;
20144;SDS011;10233;50.814;6.590;2024-01-06T02:46:32;4.73;;;2.27;;
20144;SDS011;10233;50.814;6.590;2024-01-06T02:47:32;4.10;;;2.55;;
20144;SDS011;10233;50.814;6.590;2024-01-06T02:48:33;4.43;;;2.87;;
20144;SDS011;10233;50.814;6.590;2024-01-06T02:49:34;4.82;;;2.65;;
20144;SDS011;10233;50.814;6.590;2024-01-06T02:50:34;4.60;;;2.67;;
20144;SDS011;10233;50.814;6.590;2024-01-06T02:51:35;3.63;;;2.17;;
20144;SDS011;10233;50.814;6.590;2024-01-06T02:52:35;3.72;;;2.22;;
20144;SDS011;10233;50.814;6.590;2024-01-06T02:53:35;5.00;;;2.53;;
20144;SDS011;10233;50.814;6.590;2024-01-06T02:54:36;6.90;;;3.20;;
20144;SDS011;10233;50.814;6.590;2024-01-06T02:55:36;3.03;;;2.22;;
20144;SDS011;10233;50.814;6.590;2024-01-06T02:56:37;5.00;;;3.00;;
20144;SDS011;10233;50.814;6.590;2024-01-06T02:57:38;4.73;;;2.53;;
20144;SDS011;10233;50.814;6.590;2024-01-06T02:58:39;8.67;;;3.03;;
20144;SDS011;10233;50.814;6.590;2024-01-06T02:59:39;5.40;;;3.13;;
20144;SDS011;10233;50.814;6.590;2024-01-06T03:00:39;5.10;;;2.77;;
20144;SDS011;10233;50.814;6.590;2024-01-06T03:01:40;7.57;;;2.40;;
20144;SDS011;10233;50.814;6.590;2024-01-06T03:02:40;6.00;;;2.57;;
20144;SDS011;10233;50.814;6.590;2024-01-06T03:03:42;8.23;;;2.83;;
20144;SDS011;10233;50.814;6.590;2024-01-06T03:04:43;5.67;;;3.37;;
20144;SDS011;10233;50.814;6.590;2024-01-06T03:05:43;4.50;;;3.33;;
20144;SDS011;10233;50.814;6.590;2024-01-06T03:06:46;5.82;;;3.30;;
20144;SDS011;10233;50.814;6.590;2024-01-06T03:07:52;6.90;;;3.10;;
20144;SDS011;10233;50.814;6.590;2024-01-06T03:08:53;4.70;;;2.83;;
20144;SDS011;10233;50.814;6.590;2024-01-06T03:09:53;6.33;;;3.40;;
20144;SDS011;10233;50.814;6.590;2024-01-06T03:10:53;4.57;;;2.90;;
20144;SDS011;10233;50.814;6.590;2024-01-06T03:11:54;4.85;;;2.50;;
20144;SDS011;10233;50.814;6.590;2024-01-06T03:12:55;6.10;;;3.37;;
20144;SDS011;10233;50.814;6.590;2024-01-06T03:13:55;6.13;;;3.22;;
20144;SDS011;10233;50.814;6.590;2024-01-06T03:14:55;9.63;;;3.23;;
20144;SDS011;10233;50.814;6.590;2024-01-06T03:15:56;3.90;;;2.67;;
20144;SDS011;10233;50.814;6.590;2024-01-06T03:16:56;6.35;;;3.13;;
20144;SDS011;10233;50.814;6.590;2024-01-06T03:17:58;5.22;;;3.13;;
20144;SDS011;10233;50.814;6.590;2024-01-06T03:18:58;8.13;;;3.30;;
20144;SDS011;10233;50.814;6.590;2024-01-06T03:19:59;6.53;;;3.33;;
20144;SDS011;10233;50.814;6.590;2024-01-06T03:20:59;6.97;;;2.83;;
20144;SDS011;10233;50.814;6.590;2024-01-06T03:22:00;8.53;;;3.50;;
20144;SDS011;10233;50.814;6.590;2024-01-06T03:23:00;8.02;;;2.90;;
20144;SDS011;10233;50.814;6.590;2024-01-06T03:24:01;4.97;;;2.83;;
20144;SDS011;10233;50.814;6.590;2024-01-06T03:25:01;6.70;;;3.20;;
20144;SDS011;10233;50.814;6.590;2024-01-06T03:26:05;4.88;;;3.20;;
20144;SDS011;10233;50.814;6.590;2024-01-06T03:27:06;7.18;;;3.05;;
20144;SDS011;10233;50.814;6.590;2024-01-06T03:28:06;5.45;;;2.42;;
20144;SDS011;10233;50.814;6.590;2024-01-06T03:29:07;5.90;;;3.17;;
20144;SDS011;10233;50.814;6.590;2024-01-06T03:30:07;6.55;;;3.58;;
20144;SDS011;10233;50.814;6.590;2024-01-06T03:31:08;5.30;;;2.63;;
20144;SDS011;10233;50.814;6.590;2024-01-06T03:32:09;7.10;;;3.20;;
20144;SDS011;10233;50.814;6.590;2024-01-06T03:33:09;8.73;;;3.43;;
20144;SDS011;10233;50.814;6.590;2024-01-06T03:34:10;8.48;;;3.10;;
20144;SDS011;10233;50.814;6.590;2024-01-06T03:35:13;5.70;;;2.90;;
20144;SDS011;10233;50.814;6.590;2024-01-06T03:36:13;6.40;;;3.20;;
20144;SDS011;10233;50.814;6.590;2024-01-06T03:37:17;5.63;;;2.97;;
20144;SDS011;10233;50.814;6.590;2024-01-06T03:38:17;7.70;;;3.27;;
20144;SDS011;10233;50.814;6.590;2024-01-06T03:39:17;5.32;;;3.28;;
20144;SDS011;10233;50.814;6.590;2024-01-06T03:40:18;7.27;;;3.77;;
20144;SDS011;10233;50.814;6.590;2024-01-06T03:41:18;5.82;;;3.17;;
20144;SDS011;10233;50.814;6.590;2024-01-06T03:42:19;6.37;;;3.00;;
20144;SDS011;10233;50.814;6.590;2024-01-06T03:43:19;7.23;;;3.63;;
20144;SDS011;10233;50.814;6.590;2024-01-06T03:44:20;6.27;;;3.33;;
20144;SDS011;10233;50.814;6.590;2024-01-06T03:45:20;8.00;;;3.10;;
20144;SDS011;10233;50.814;6.590;2024-01-06T03:46:21;5.18;;;2.70;;
20144;SDS011;10233;50.814;6.590;2024-01-06T03:47:22;6.07;;;3.25;;
20144;SDS011;10233;50.814;6.590;2024-01-06T03:48:22;5.47;;;3.00;;
20144;SDS011;10233;50.814;6.590;2024-01-06T03:49:23;7.32;;;3.05;;
20144;SDS011;10233;50.814;6.590;2024-01-06T03:50:24;6.88;;;3.72;;
20144;SDS011;10233;50.814;6.590;2024-01-06T03:51:24;7.67;;;3.87;;
20144;SDS011;10233;50.814;6.590;2024-01-06T03:52:24;8.80;;;3.35;;
20144;SDS011;10233;50.814;6.590;2024-01-06T03:53:25;5.17;;;3.30;;
20144;SDS011;10233;50.814;6.590;2024-01-06T03:54:25;9.68;;;3.85;;
20144;SDS011;10233;50.814;6.590;2024-01-06T03:55:26;8.93;;;3.73;;
20144;SDS011;10233;50.814;6.590;2024-01-06T03:56:26;6.80;;;3.70;;
20144;SDS011;10233;50.814;6.590;2024-01-06T03:57:27;6.00;;;3.15;;
20144;SDS011;10233;50.814;6.590;2024-01-06T03:58:27;6.97;;;3.80;;
20144;SDS011;10233;50.814;6.590;2024-01-06T03:59:28;6.57;;;3.40;;
20144;SDS011;10233;50.814;6.590;2024-01-06T04:00:28;9.30;;;3.43;;
20144;SDS011;10233;50.814;6.590;2024-01-06T04:01:28;5.80;;;3.00;;
20144;SDS011;10233;50.814;6.590;2024-01-06T04:02:29;7.83;;;3.50;;
20144;SDS011;10233;50.814;6.590;2024-01-06T04:03:29;9.38;;;3.80;;
20144;SDS011;10233;50.814;6.590;2024-01-06T04:04:30;6.47;;;3.00;;
20144;SDS011;10233;50.814;6.590;2024-01-06T04:05:30;4.60;;;2.13;;
20144;SDS011;10233;50.814;6.590;2024-01-06T04:06:31;6.10;;;2.95;;
20144;SDS011;10233;50.814;6.590;2024-01-06T04:07:34;7.10;;;2.97;;
20144;SDS011;10233;50.814;6.590;2024-01-06T04:08:35;6.50;;;3.03;;
20144;SDS011;10233;50.814;6.590;2024-01-06T04:09:36;7.75;;;3.05;;
20144;SDS011;10233;50.814;6.590;2024-01-06T04:10:36;5.30;;;3.40;;
20144;SDS011;10233;50.814;6.590;2024-01-06T04:11:37;5.13;;;3.03;;
20144;SDS011;10233;50.814;6.590;2024-01-06T04:12:37;7.83;;;3.13;;
20144;SDS011;10233;50.814;6.590;2024-01-06T04:13:37;4.20;;;3.00;;
20144;SDS011;10233;50.814;6.590;2024-01-06T04:14:38;6.37;;;2.90;;
20144;SDS011;10233;50.814;6.590;2024-01-06T04:15:38;4.20;;;2.07;;
20144;SDS011;10233;50.814;6.590;2024-01-06T04:16:39;4.97;;;2.57;;
20144;SDS011;10233;50.814;6.590;2024-01-06T04:17:39;5.83;;;2.30;;
20144;SDS011;10233;50.814;6.590;2024-01-06T04:18:40;5.45;;;2.05;;
20144;SDS011;10233;50.814;6.590;2024-01-06T04:19:41;4.03;;;2.10;;
20144;SDS011;10233;50.814;6.590;2024-01-06T04:20:42;4.25;;;1.85;;
20144;SDS011;10233;50.814;6.590;2024-01-06T04:21:42;3.33;;;2.00;;
20144;SDS011;10233;50.814;6.590;2024-01-06T04:22:42;4.18;;;1.95;;
20144;SDS011;10233;50.814;6.590;2024-01-06T04:23:44;3.63;;;1.98;;
20144;SDS011;10233;50.814;6.590;2024-01-06T04:24:45;4.10;;;2.13;;
20144;SDS011;10233;50.814;6.590;2024-01-06T04:25:45;4.67;;;1.40;;
20144;SDS011;10233;50.814;6.590;2024-01-06T04:26:46;2.63;;;1.90;;
20144;SDS011;10233;50.814;6.590;2024-01-06T04:27:47;2.22;;;1.52;;
20144;SDS011;10233;50.814;6.590;2024-01-06T04:28:49;3.13;;;2.00;;
20144;SDS011;10233;50.814;6.590;2024-01-06T04:29:49;2.93;;;1.70;;
20144;SDS011;10233;50.814;6.590;2024-01-06T04:31:11;5.40;;;1.40;;
20144;SDS011;10233;50.814;6.590;2024-01-06T04:32:23;2.45;;;1.55;;
20144;SDS011;10233;50.814;6.590;2024-01-06T04:33:32;2.58;;;1.65;;
20144;SDS011;10233;50.814;6.590;2024-01-06T04:34:36;1.85;;;1.20;;
20144;SDS011;10233;50.814;6.590;2024-01-06T04:35:37;2.78;;;1.85;;
20144;SDS011;10233;50.814;6.590;2024-01-06T04:36:40;3.43;;;1.60;;
20144;SDS011;10233;50.814;6.590;2024-01-06T04:37:44;4.00;;;2.00;;
20144;SDS011;10233;50.814;6.590;2024-01-06T04:38:45;3.47;;;1.88;;
20144;SDS011;10233;50.814;6.590;2024-01-06T04:39:46;3.92;;;2.33;;
20144;SDS011;10233;50.814;6.590;2024-01-06T04:40:47;6.57;;;2.67;;
20144;SDS011;10233;50.814;6.590;2024-01-06T04:41:47;3.53;;;2.17;;
20144;SDS011;10233;50.814;6.590;2024-01-06T04:42:48;3.67;;;1.80;;
20144;SDS011;10233;50.814;6.590;2024-01-06T04:43:48;5.23;;;2.63;;
20144;SDS011;10233;50.814;6.590;2024-01-06T04:44:49;2.72;;;1.52;;
20144;SDS011;10233;50.814;6.590;2024-01-06T04:45:50;4.70;;;2.20;;
20144;SDS011;10233;50.814;6.590;2024-01-06T04:46:50;5.67;;;2.43;;
20144;SDS011;10233;50.814;6.590;2024-01-06T04:47:51;6.70;;;2.22;;
20144;SDS011;10233;50.814;6.590;2024-01-06T04:48:51;7.43;;;2.63;;
20144;SDS011;10233;50.814;6.590;2024-01-06T04:49:51;4.03;;;2.30;;
20144;SDS011;10233;50.814;6.590;2024-01-06T04:50:52;5.90;;;2.97;;
20144;SDS011;10233;50.814;6.590;2024-01-06T04:51:52;4.83;;;2.40;;
20144;SDS011;10233;50.814;6.590;2024-01-06T04:52:53;4.43;;;2.33;;
20144;SDS011;10233;50.814;6.590;2024-01-06T04:53:53;3.60;;;2.23;;
20144;SDS011;10233;50.814;6.590;2024-01-06T04:54:54;4.15;;;2.15;;
20144;SDS011;10233;50.814;6.590;2024-01-06T04:55:54;8.53;;;2.33;;
20144;SDS011;10233;50.814;6.590;2024-01-06T04:56:54;8.60;;;3.13;;
20144;SDS011;10233;50.814;6.590;2024-01-06T04:57:56;6.60;;;2.70;;
20144;SDS011;10233;50.814;6.590;2024-01-06T04:58:56;3.67;;;1.90;;
20144;SDS011;10233;50.814;6.590;2024-01-06T04:59:58;5.53;;;2.75;;
20144;SDS011;10233;50.814;6.590;2024-01-06T05:00:58;4.23;;;2.67;;
20144;SDS011;10233;50.814;6.590;2024-01-06T05:01:58;7.23;;;3.10;;
20144;SDS011;10233;50.814;6.590;2024-01-06T05:02:59;6.97;;;2.97;;
20144;SDS011;10233;50.814;6.590;2024-01-06T05:03:59;4.97;;;2.77;;
20144;SDS011;10233;50.814;6.590;2024-01-06T05:05:00;4.68;;;2.97;;
20144;SDS011;10233;50.814;6.590;2024-01-06T05:06:00;8.77;;;2.58;;
20144;SDS011;10233;50.814;6.590;2024-01-06T05:07:01;7.97;;;2.30;;
20144;SDS011;10233;50.814;6.590;2024-01-06T05:08:02;4.15;;;2.80;;
20144;SDS011;10233;50.814;6.590;2024-01-06T05:09:03;4.97;;;2.67;;
20144;SDS011;10233;50.814;6.590;2024-01-06T05:10:04;4.78;;;2.42;;
20144;SDS011;10233;50.814;6.590;2024-01-06T05:11:05;5.35;;;2.60;;
20144;SDS011;10233;50.814;6.590;2024-01-06T05:12:05;10.80;;;3.47;;
20144;SDS011;10233;50.814;6.590;2024-01-06T05:13:06;8.85;;;3.60;;
20144;SDS011;10233;50.814;6.590;2024-01-06T05:14:06;3.97;;;2.20;;
20144;SDS011;10233;50.814;6.590;2024-01-06T05:15:07;6.40;;;2.70;;
20144;SDS011;10233;50.814;6.590;2024-01-06T05:16:09;5.82;;;3.08;;
20144;SDS011;10233;50.814;6.590;2024-01-06T05:17:10;4.47;;;2.65;;
20144;SDS011;10233;50.814;6.590;2024-01-06T05:18:10;5.57;;;2.57;;
20144;SDS011;10233;50.814;6.590;2024-01-06T05:19:10;7.93;;;3.20;;
20144;SDS011;10233;50.814;6.590;2024-01-06T05:20:13;6.53;;;3.33;;
20144;SDS011;10233;50.814;6.590;2024-01-06T05:21:13;6.10;;;3.00;;
20144;SDS011;10233;50.814;6.590;2024-01-06T05:22:13;9.68;;;2.97;;
20144;SDS011;10233;50.814;6.590;2024-01-06T05:23:14;7.53;;;3.40;;
20144;SDS011;10233;50.814;6.590;2024-01-06T05:24:14;5.88;;;3.08;;
20144;SDS011;10233;50.814;6.590;2024-01-06T05:25:15;7.10;;;3.33;;
20144;SDS011;10233;50.814;6.590;2024-01-06T05:26:15;6.32;;;2.50;;
20144;SDS011;10233;50.814;6.590;2024-01-06T05:27:16;8.53;;;3.80;;
20144;SDS011;10233;50.814;6.590;2024-01-06T05:28:16;5.25;;;3.13;;
20144;SDS011;10233;50.814;6.590;2024-01-06T05:29:17;7.30;;;3.47;;
20144;SDS011;10233;50.814;6.590;2024-01-06T05:30:17;4.90;;;2.80;;
20144;SDS011;10233;50.814;6.590;2024-01-06T05:31:18;5.30;;;3.00;;
20144;SDS011;10233;50.814;6.590;2024-01-06T05:32:18;4.93;;;2.47;;
20144;SDS011;10233;50.814;6.590;2024-01-06T05:33:19;6.07;;;2.97;;
20144;SDS011;10233;50.814;6.590;2024-01-06T05:34:19;7.07;;;3.40;;
20144;SDS011;10233;50.814;6.590;2024-01-06T05:35:20;8.30;;;3.43;;
20144;SDS011;10233;50.814;6.590;2024-01-06T05:36:20;6.07;;;3.40;;
20144;SDS011;10233;50.814;6.590;2024-01-06T05:37:20;6.38;;;2.55;;
20144;SDS011;10233;50.814;6.590;2024-01-06T05:38:21;7.07;;;3.27;;
20144;SDS011;10233;50.814;6.590;2024-01-06T05:39:22;4.28;;;2.83;;
20144;SDS011;10233;50.814;6.590;2024-01-06T05:40:22;5.77;;;3.10;;
20144;SDS011;10233;50.814;6.590;2024-01-06T05:41:22;7.72;;;3.03;;
20144;SDS011;10233;50.814;6.590;2024-01-06T05:42:23;6.07;;;2.80;;
20144;SDS011;10233;50.814;6.590;2024-01-06T05:43:23;5.32;;;2.53;;
20144;SDS011;10233;50.814;6.590;2024-01-06T05:44:24;5.97;;;2.97;;
20144;SDS011;10233;50.814;6.590;2024-01-06T05:45:25;6.65;;;3.38;;
20144;SDS011;10233;50.814;6.590;2024-01-06T05:46:25;6.23;;;2.90;;
20144;SDS011;10233;50.814;6.590;2024-01-06T05:47:26;8.93;;;3.38;;
20144;SDS011;10233;50.814;6.590;2024-01-06T05:48:26;6.30;;;3.07;;
20144;SDS011;10233;50.814;6.590;2024-01-06T05:49:27;9.23;;;3.80;;
20144;SDS011;10233;50.814;6.590;2024-01-06T05:50:27;5.70;;;2.40;;
20144;SDS011;10233;50.814;6.590;2024-01-06T05:51:28;5.60;;;3.00;;
20144;SDS011;10233;50.814;6.590;2024-01-06T05:52:28;5.35;;;2.92;;
20144;SDS011;10233;50.814;6.590;2024-01-06T05:53:29;6.47;;;3.47;;
20144;SDS011;10233;50.814;6.590;2024-01-06T05:54:29;8.65;;;3.35;;
20144;SDS011;10233;50.814;6.590;2024-01-06T05:55:30;5.32;;;2.83;;
20144;SDS011;10233;50.814;6.590;2024-01-06T05:56:31;6.67;;;2.97;;
20144;SDS011;10233;50.814;6.590;2024-01-06T05:57:31;8.43;;;3.37;;
20144;SDS011;10233;50.814;6.590;2024-01-06T05:58:31;5.80;;;3.10;;
20144;SDS011;10233;50.814;6.590;2024-01-06T05:59:32;7.77;;;3.43;;
20144;SDS011;10233;50.814;6.590;2024-01-06T06:00:33;6.07;;;2.65;;
20144;SDS011;10233;50.814;6.590;2024-01-06T06:01:34;5.10;;;3.53;;
20144;SDS011;10233;50.814;6.590;2024-01-06T06:02:34;8.05;;;3.55;;
20144;SDS011;10233;50.814;6.590;2024-01-06T06:03:34;9.33;;;3.73;;
20144;SDS011;10233;50.814;6.590;2024-01-06T06:04:35;7.63;;;3.77;;
20144;SDS011;10233;50.814;6.590;2024-01-06T06:05:35;5.80;;;2.75;;
20144;SDS011;10233;50.814;6.590;2024-01-06T06:06:36;8.13;;;3.58;;